Time;durP1;ratioP1;P1;durP2;ratioP2;P2;SDS_P1;SDS_P2;PMS_P1;PMS_P2;Temp;Humidity;BMP_temperature;BMP_pressure;BME280_temperature;BME280_humidity;BME280_pressure;Samples;Min_cycle;Max_cycle;Signal;HPM_P1;HPM_P2
2021/01/13 00:00:20;;;;;;;8.00;5.60;;;;;;;4.10;90.74;96275.38;5010626;28;20233;-56
2021/01/13 00:02:46;;;;;;;5.60;5.10;;;;;;;3.98;91.16;96272.50;5010463;28;20214;-55
2021/01/13 00:05:15;;;;;;;5.97;5.03;;;;;;;3.98;91.20;96284.66;5010988;28;20467;-56
2021/01/13 00:07:41;;;;;;;7.77;5.37;;;;;;;4.10;91.02;96283.97;5010745;28;20187;-55
2021/01/13 00:10:08;;;;;;;7.03;5.07;;;;;;;4.25;91.13;96296.09;5010063;28;21189;-55
2021/01/13 00:12:34;;;;;;;5.50;4.90;;;;;;;4.26;90.04;96287.31;5009434;28;20429;-54
2021/01/13 00:14:59;;;;;;;6.47;5.03;;;;;;;4.25;89.88;96283.09;5009794;28;20487;-55
2021/01/13 00:17:25;;;;;;;5.13;4.40;;;;;;;4.39;89.34;96284.78;5010681;28;20465;-55
2021/01/13 00:19:50;;;;;;;5.10;3.93;;;;;;;4.30;89.69;96286.72;5010833;28;20176;-55
2021/01/13 00:22:15;;;;;;;6.43;5.03;;;;;;;4.40;88.80;96295.03;5010396;28;20190;-54
2021/01/13 00:24:41;;;;;;;5.17;4.50;;;;;;;4.12;89.26;96287.19;5009142;28;20195;-55
2021/01/13 00:27:06;;;;;;;5.93;4.40;;;;;;;4.08;89.56;96296.34;5010113;28;20185;-55
2021/01/13 00:29:32;;;;;;;4.40;4.00;;;;;;;4.18;89.66;96301.25;5010680;28;20189;-55
2021/01/13 00:32:01;;;;;;;6.40;3.90;;;;;;;4.18;88.86;96291.63;5010774;28;20187;-54
2021/01/13 00:34:27;;;;;;;3.97;3.60;;;;;;;4.03;89.15;96292.69;5008759;28;20210;-51
2021/01/13 00:36:53;;;;;;;3.80;3.50;;;;;;;3.72;89.28;96287.00;5021589;28;20440;-54
2021/01/13 00:39:19;;;;;;;4.17;3.50;;;;;;;3.65;90.58;96296.53;5033493;28;20411;-52
2021/01/13 00:41:44;;;;;;;4.90;3.47;;;;;;;3.53;90.47;96296.22;5018450;28;20519;-54
2021/01/13 00:44:10;;;;;;;4.20;3.80;;;;;;;3.64;90.63;96305.31;5012393;28;20681;-54
2021/01/13 00:46:44;;;;;;;4.80;3.50;;;;;;;3.68;89.93;96302.16;5013819;28;20255;-52
2021/01/13 00:49:11;;;;;;;3.63;3.00;;;;;;;3.54;90.33;96302.19;5015900;28;20184;-52
2021/01/13 00:51:42;;;;;;;6.53;3.77;;;;;;;3.71;89.80;96308.78;5013825;28;20498;-55
2021/01/13 00:54:10;;;;;;;3.57;3.17;;;;;;;3.85;88.45;96305.31;5007920;28;20837;-54
2021/01/13 00:56:38;;;;;;;4.27;3.30;;;;;;;3.81;88.63;96309.28;5021046;28;20472;-56
2021/01/13 00:59:04;;;;;;;4.57;3.20;;;;;;;3.96;88.48;96308.25;5012987;28;20425;-55
2021/01/13 01:01:29;;;;;;;3.33;2.73;;;;;;;4.08;87.84;96321.53;5006282;28;20429;-56
2021/01/13 01:03:56;;;;;;;5.63;2.80;;;;;;;4.15;87.26;96318.00;5012611;28;20250;-56
2021/01/13 01:06:22;;;;;;;4.20;3.03;;;;;;;4.20;87.28;96320.84;5013107;28;20281;-54
2021/01/13 01:08:48;;;;;;;6.77;2.70;;;;;;;4.01;86.76;96321.47;5013446;28;20751;-56
2021/01/13 01:11:26;;;;;;;3.53;2.50;;;;;;;3.88;87.16;96315.34;5013306;28;20419;-54
2021/01/13 01:13:51;;;;;;;3.43;2.53;;;;;;;4.04;86.87;96321.09;5011958;28;20777;-54
2021/01/13 01:16:16;;;;;;;3.37;3.03;;;;;;;4.03;87.05;96316.91;5012211;28;20511;-54
2021/01/13 01:18:45;;;;;;;4.30;2.10;;;;;;;4.19;87.05;96324.44;5013386;28;20173;-54
2021/01/13 01:21:11;;;;;;;3.90;2.23;;;;;;;3.87;87.03;96329.34;5013324;28;20172;-55
2021/01/13 01:23:37;;;;;;;12.97;2.90;;;;;;;3.99;87.42;96328.66;5012884;28;20781;-56
2021/01/13 01:26:04;;;;;;;4.90;2.50;;;;;;;4.05;86.60;96325.31;5013273;28;20422;-56
2021/01/13 01:28:30;;;;;;;2.33;2.23;;;;;;;3.97;86.64;96332.41;5013379;28;20182;-54
2021/01/13 01:30:56;;;;;;;3.17;2.60;;;;;;;3.84;87.27;96333.09;5012823;28;20425;-56
2021/01/13 01:33:22;;;;;;;4.90;2.60;;;;;;;3.86;86.92;96338.13;5012856;28;20172;-56
2021/01/13 01:35:47;;;;;;;3.17;2.33;;;;;;;3.72;88.13;96339.78;5013173;28;20197;-56
2021/01/13 01:38:12;;;;;;;4.37;2.53;;;;;;;3.81;87.18;96343.06;5013400;28;20527;-54
2021/01/13 01:40:38;;;;;;;3.57;2.57;;;;;;;3.93;87.01;96339.00;5013105;28;20314;-54
2021/01/13 01:43:04;;;;;;;2.37;2.17;;;;;;;4.16;86.38;96344.81;5012468;28;20178;-53
2021/01/13 01:45:30;;;;;;;6.03;2.53;;;;;;;4.30;85.71;96351.72;5012862;28;20212;-56
2021/01/13 01:48:02;;;;;;;3.60;2.50;;;;;;;4.46;85.02;96348.88;5013146;28;20174;-56
2021/01/13 01:50:38;;;;;;;2.93;2.63;;;;;;;4.49;85.06;96352.91;5012819;28;20491;-56
2021/01/13 01:53:26;;;;;;;3.77;2.20;;;;;;;4.58;84.73;96354.38;5016835;28;20759;-54
2021/01/13 01:56:10;;;;;;;4.30;2.73;;;;;;;4.66;84.81;96368.03;5016792;28;20454;-56
2021/01/13 01:58:36;;;;;;;3.53;2.00;;;;;;;4.78;84.56;96365.72;5016662;28;20793;-54
2021/01/13 02:01:04;;;;;;;4.20;2.47;;;;;;;4.86;84.83;96362.97;5016787;28;20411;-56
2021/01/13 02:03:34;;;;;;;3.10;2.70;;;;;;;4.95;84.21;96362.66;5016485;28;20448;-56
2021/01/13 02:06:06;;;;;;;6.90;2.23;;;;;;;4.92;83.63;96367.44;5016814;28;20822;-54
2021/01/13 02:08:41;;;;;;;5.03;2.33;;;;;;;4.99;83.86;96368.28;5016865;28;20900;-56
2021/01/13 02:11:15;;;;;;;5.90;3.07;;;;;;;5.06;83.74;96366.50;5016562;28;20453;-54
2021/01/13 02:13:40;;;;;;;3.30;2.67;;;;;;;5.09;83.86;96363.53;5016589;28;20889;-56
2021/01/13 02:16:06;;;;;;;5.40;2.60;;;;;;;5.01;83.83;96364.50;5016814;28;20550;-56
2021/01/13 02:18:35;;;;;;;4.60;3.37;;;;;;;5.13;84.18;96367.34;5016562;28;20186;-54
2021/01/13 02:21:03;;;;;;;3.93;2.67;;;;;;;5.13;83.57;96365.56;5015548;28;20552;-56
2021/01/13 02:23:34;;;;;;;4.73;2.97;;;;;;;5.23;83.79;96362.63;5015907;28;20528;-54
2021/01/13 02:26:18;;;;;;;3.93;2.80;;;;;;;5.31;83.43;96362.44;5016222;28;20419;-56
2021/01/13 02:28:56;;;;;;;4.70;3.17;;;;;;;5.28;83.46;96367.22;5016660;28;20557;-54
2021/01/13 02:31:29;;;;;;;5.63;3.13;;;;;;;5.26;83.13;96362.22;5016548;28;20459;-57
2021/01/13 02:34:22;;;;;;;3.53;2.90;;;;;;;5.24;83.16;96364.22;5016012;28;20439;-56
2021/01/13 02:37:09;;;;;;;3.70;2.30;;;;;;;5.28;82.99;96370.66;5016120;28;20438;-56
2021/01/13 02:39:36;;;;;;;5.50;3.13;;;;;;;5.25;83.23;96371.06;5015973;28;20463;-54
2021/01/13 02:42:01;;;;;;;2.43;2.23;;;;;;;5.19;82.87;96369.19;5016365;28;20878;-54
2021/01/13 02:44:30;;;;;;;3.20;2.43;;;;;;;5.07;82.59;96368.91;5015674;28;20446;-57
2021/01/13 02:46:56;;;;;;;4.33;2.30;;;;;;;5.08;81.87;96377.53;5016133;28;20183;-56
2021/01/13 02:49:51;;;;;;;2.97;2.00;;;;;;;5.03;81.99;96377.31;5016389;28;20503;-56
2021/01/13 02:52:18;;;;;;;5.13;2.50;;;;;;;5.03;81.75;96377.31;5007397;28;20188;-53
2021/01/13 02:54:51;;;;;;;2.83;2.20;;;;;;;4.97;82.13;96378.88;5015018;28;20468;-56
2021/01/13 02:57:17;;;;;;;3.63;2.60;;;;;;;4.91;82.01;96378.84;5015945;28;20901;-54
2021/01/13 02:59:49;;;;;;;3.97;2.43;;;;;;;4.92;83.21;96385.66;5016114;28;20421;-54
2021/01/13 03:02:15;;;;;;;9.87;3.03;;;;;;;4.61;84.35;96383.41;5016009;28;20427;-54
2021/01/13 03:04:42;;;;;;;2.87;2.60;;;;;;;4.45;84.23;96381.09;5015711;28;20436;-56
2021/01/13 03:07:12;;;;;;;3.90;2.50;;;;;;;4.28;84.69;96378.91;5015471;28;20430;-56
2021/01/13 03:09:49;;;;;;;4.80;2.63;;;;;;;4.50;84.03;96385.72;5015843;28;20507;-56
2021/01/13 03:12:19;;;;;;;4.40;2.27;;;;;;;4.38;84.29;96385.44;5015752;28;20407;-53
2021/01/13 03:14:54;;;;;;;3.20;2.27;;;;;;;4.35;84.62;96385.78;5014718;28;20454;-54
2021/01/13 03:17:28;;;;;;;3.23;2.20;;;;;;;4.24;85.40;96386.28;5015770;28;20568;-56
2021/01/13 03:20:08;;;;;;;5.03;2.80;;;;;;;4.47;85.00;96383.50;5015548;28;20426;-54
2021/01/13 03:22:44;;;;;;;4.23;2.87;;;;;;;4.58;84.48;96388.19;5015028;28;20429;-55
2021/01/13 03:25:11;;;;;;;6.97;2.90;;;;;;;4.43;84.17;96395.25;5015406;28;20426;-56
2021/01/13 03:27:43;;;;;;;5.00;2.70;;;;;;;4.46;84.11;96387.88;5015545;28;20428;-54
2021/01/13 03:30:11;;;;;;;4.07;2.90;;;;;;;4.50;84.36;96386.53;5015434;28;20423;-56
2021/01/13 03:32:42;;;;;;;3.93;2.33;;;;;;;4.55;83.89;96391.97;5014941;28;20430;-56
2021/01/13 03:35:14;;;;;;;4.60;1.97;;;;;;;4.60;83.66;96389.59;5014895;28;20516;-53
2021/01/13 03:37:56;;;;;;;6.47;2.70;;;;;;;4.44;83.49;96389.06;5015385;28;20412;-54
2021/01/13 03:40:24;;;;;;;4.67;1.80;;;;;;;4.14;84.17;96398.78;5014948;28;20423;-54
2021/01/13 03:42:54;;;;;;;2.73;2.53;;;;;;;4.00;85.18;96392.63;5014763;28;20518;-56
2021/01/13 03:45:34;;;;;;;7.47;2.23;;;;;;;4.09;84.62;96401.13;5015124;28;20457;-53
2021/01/13 03:48:18;;;;;;;3.33;2.50;;;;;;;4.00;84.88;96399.63;5015281;28;20424;-54
2021/01/13 03:50:46;;;;;;;3.47;2.40;;;;;;;3.69;86.08;96401.69;5014883;28;20425;-56
2021/01/13 03:53:14;;;;;;;7.07;2.83;;;;;;;3.79;86.23;96397.81;5014664;28;20410;-56
2021/01/13 03:55:42;;;;;;;3.40;2.30;;;;;;;3.68;85.90;96403.47;5014932;28;20473;-56
2021/01/13 03:58:21;;;;;;;4.20;2.57;;;;;;;3.69;85.86;96404.28;5014580;28;20418;-56
2021/01/13 04:00:59;;;;;;;3.03;2.47;;;;;;;3.49;87.18;96411.00;5015024;28;20411;-56
2021/01/13 04:03:24;;;;;;;5.50;3.10;;;;;;;3.59;87.39;96409.75;5014535;28;20413;-56
2021/01/13 04:06:02;;;;;;;4.30;2.43;;;;;;;3.84;86.31;96398.06;5014913;28;20421;-54
2021/01/13 04:08:34;;;;;;;4.80;3.13;;;;;;;3.99;85.86;96403.22;5014292;28;20719;-56
2021/01/13 04:10:59;;;;;;;5.20;2.83;;;;;;;3.74;85.38;96402.75;5014731;28;20496;-56
2021/01/13 04:13:30;;;;;;;7.03;2.80;;;;;;;3.73;85.56;96402.94;5013719;28;20440;-56
2021/01/13 04:16:00;;;;;;;4.60;3.70;;;;;;;3.65;85.69;96403.03;5014701;28;20606;-56
2021/01/13 04:18:25;;;;;;;3.13;2.50;;;;;;;3.64;85.41;96402.22;5014019;28;20436;-54
2021/01/13 04:20:51;;;;;;;5.43;2.70;;;;;;;3.60;85.75;96400.97;5014682;28;20427;-56
2021/01/13 04:23:17;;;;;;;7.87;2.47;;;;;;;3.48;85.55;96407.59;5014459;28;20191;-56
2021/01/13 04:25:43;;;;;;;4.83;2.37;;;;;;;3.23;86.72;96413.25;5014339;28;20449;-54
2021/01/13 04:28:08;;;;;;;3.50;2.50;;;;;;;3.40;86.47;96418.09;5014409;28;20198;-54
2021/01/13 04:30:34;;;;;;;4.93;2.87;;;;;;;3.48;85.83;96418.00;5014250;28;20253;-56
2021/01/13 04:33:00;;;;;;;2.97;2.67;;;;;;;3.47;85.76;96420.78;5013812;28;20475;-54
2021/01/13 04:35:26;;;;;;;8.13;3.40;;;;;;;3.46;85.95;96419.97;5013816;28;20291;-56
2021/01/13 04:37:53;;;;;;;6.70;2.80;;;;;;;3.58;85.49;96422.91;5014157;28;20216;-56
2021/01/13 04:40:31;;;;;;;4.63;2.60;;;;;;;3.42;85.96;96412.72;5014053;28;20413;-56
2021/01/13 04:43:04;;;;;;;4.77;3.17;;;;;;;3.49;85.24;96419.63;5013751;28;20416;-54
2021/01/13 04:45:39;;;;;;;4.67;2.90;;;;;;;3.23;86.44;96423.63;5012465;28;20527;-56
2021/01/13 04:48:11;;;;;;;3.77;2.80;;;;;;;3.33;86.23;96429.38;5013882;28;20426;-54
2021/01/13 04:50:42;;;;;;;4.60;2.90;;;;;;;3.32;86.05;96428.56;5013985;28;20420;-56
2021/01/13 04:53:21;;;;;;;4.90;2.90;;;;;;;3.19;87.13;96430.19;5013571;28;20411;-55
2021/01/13 04:55:48;;;;;;;4.20;2.83;;;;;;;3.10;87.01;96424.25;5013286;28;20964;-56
2021/01/13 04:58:57;;;;;;;4.10;3.57;;;;;;;3.36;86.74;96423.81;5013853;28;20407;-54
2021/01/13 05:01:48;;;;;;;5.47;2.80;;;;;;;3.24;87.09;96430.44;5013629;28;20421;-54
2021/01/13 05:04:55;;;;;;;6.60;3.03;;;;;;;3.08;87.64;96427.03;5013389;28;20540;-54
2021/01/13 05:07:40;;;;;;;3.30;2.97;;;;;;;3.07;88.34;96429.81;5013856;28;20427;-54
2021/01/13 05:10:07;;;;;;;4.27;3.10;;;;;;;3.20;87.64;96436.97;5013577;28;20430;-56
2021/01/13 05:12:58;;;;;;;4.63;2.90;;;;;;;3.27;87.47;96433.50;5013474;28;20892;-55
2021/01/13 05:15:29;;;;;;;6.90;3.60;;;;;;;3.47;86.88;96438.94;5013370;28;20462;-55
2021/01/13 05:18:01;;;;;;;3.87;2.97;;;;;;;3.62;86.65;96450.16;5011998;28;20946;-54
2021/01/13 05:20:31;;;;;;;3.37;3.03;;;;;;;3.62;86.49;96450.16;5013699;28;20957;-56
2021/01/13 05:22:57;;;;;;;5.60;3.13;;;;;;;3.66;85.92;96441.00;5013371;28;20414;-54
2021/01/13 05:25:35;;;;;;;3.30;2.80;;;;;;;3.55;85.69;96434.47;5013476;28;20508;-54
2021/01/13 05:28:17;;;;;;;5.43;2.87;;;;;;;3.72;85.30;96448.88;5017872;28;20413;-54
2021/01/13 05:30:45;;;;;;;4.07;3.40;;;;;;;3.77;85.38;96462.13;5017147;28;20430;-56
2021/01/13 05:33:14;;;;;;;6.77;3.37;;;;;;;3.72;85.45;96446.28;5017142;28;20454;-56
2021/01/13 05:35:42;;;;;;;4.13;3.23;;;;;;;3.84;85.08;96455.22;5016660;28;21382;-56
2021/01/13 05:38:52;;;;;;;8.00;3.33;;;;;;;3.86;84.75;96450.66;5017251;28;20452;-54
2021/01/13 05:41:18;;;;;;;5.73;3.27;;;;;;;3.89;84.78;96447.69;5006939;28;20794;-56
2021/01/13 05:43:45;;;;;;;5.73;3.40;;;;;;;4.00;84.82;96446.41;5016775;28;20445;-55
2021/01/13 05:46:12;;;;;;;6.20;3.47;;;;;;;4.00;84.74;96443.81;5017154;28;20655;-54
2021/01/13 05:48:40;;;;;;;6.00;3.10;;;;;;;3.88;84.52;96437.47;5017442;28;20410;-56
2021/01/13 05:51:06;;;;;;;5.93;3.73;;;;;;;3.52;85.52;96431.41;5016447;28;20509;-54
2021/01/13 05:53:31;;;;;;;3.67;3.07;;;;;;;3.48;85.96;96430.97;5016699;28;20446;-54
2021/01/13 05:56:02;;;;;;;3.70;3.30;;;;;;;3.30;87.16;96433.13;5016726;28;20799;-56
2021/01/13 05:58:28;;;;;;;9.07;3.60;;;;;;;3.21;87.35;96436.00;5017208;28;20181;-56
2021/01/13 06:00:59;;;;;;;3.73;3.23;;;;;;;3.30;87.30;96442.72;5016669;28;20483;-56
2021/01/13 06:03:27;;;;;;;4.20;3.80;;;;;;;3.28;87.31;96437.69;5015843;28;20429;-56
2021/01/13 06:05:58;;;;;;;4.17;3.67;;;;;;;3.32;87.21;96436.34;5016604;28;20462;-54
2021/01/13 06:08:26;;;;;;;4.23;3.80;;;;;;;3.16;87.21;96426.13;5016877;28;20924;-54
2021/01/13 06:10:55;;;;;;;4.47;4.07;;;;;;;3.21;86.94;96436.00;5016971;28;20413;-55
2021/01/13 06:13:27;;;;;;;4.60;3.87;;;;;;;3.25;87.29;96442.44;5016522;28;20415;-56
2021/01/13 06:16:01;;;;;;;9.33;4.50;;;;;;;3.34;86.76;96442.16;5016813;28;20463;-56
2021/01/13 06:18:27;;;;;;;5.63;4.07;;;;;;;3.33;86.81;96440.56;5016930;28;20437;-54
2021/01/13 06:21:00;;;;;;;4.33;3.60;;;;;;;3.30;86.80;96435.72;5016026;28;20421;-54
2021/01/13 06:23:29;;;;;;;5.87;3.93;;;;;;;3.13;87.41;96437.66;5015993;28;20517;-56
2021/01/13 06:25:55;;;;;;;5.33;3.70;;;;;;;3.20;87.54;96450.75;5016528;28;20413;-56
2021/01/13 06:28:49;;;;;;;8.87;4.07;;;;;;;2.60;89.66;96450.81;5016659;28;20417;-54
2021/01/13 06:31:20;;;;;;;4.90;3.40;;;;;;;2.83;88.84;96454.19;5016495;28;20413;-56
2021/01/13 06:33:46;;;;;;;4.40;4.00;;;;;;;2.57;90.25;96447.75;5016063;28;20833;-54
2021/01/13 06:36:30;;;;;;;6.90;3.90;;;;;;;2.73;89.72;96450.22;5015634;28;20451;-56
2021/01/13 06:38:59;;;;;;;4.20;3.90;;;;;;;2.52;90.80;96452.66;5016557;28;20205;-54
2021/01/13 06:41:26;;;;;;;6.27;4.00;;;;;;;2.45;91.56;96455.13;5016353;28;20413;-56
2021/01/13 06:44:00;;;;;;;5.77;3.80;;;;;;;2.48;91.47;96452.19;5015635;28;20775;-57
2021/01/13 06:46:27;;;;;;;5.93;4.60;;;;;;;2.25;92.43;96453.97;5016121;28;20407;-56
2021/01/13 06:48:53;;;;;;;6.20;4.00;;;;;;;2.28;92.51;96458.81;5016383;28;20492;-56
2021/01/13 06:51:20;;;;;;;5.53;4.13;;;;;;;2.32;92.00;96454.88;5015691;28;20421;-54
2021/01/13 06:53:46;;;;;;;8.30;4.00;;;;;;;2.13;92.66;96457.94;5016115;28;20423;-56
2021/01/13 06:56:13;;;;;;;7.23;4.77;;;;;;;2.25;92.83;96463.53;5015946;28;20451;-54
2021/01/13 06:58:54;;;;;;;7.33;4.20;;;;;;;2.23;92.70;96455.13;5015931;28;20750;-56
2021/01/13 07:01:19;;;;;;;4.00;3.60;;;;;;;2.07;92.80;96467.19;5015796;28;20415;-56
2021/01/13 07:03:45;;;;;;;7.07;3.87;;;;;;;2.22;93.09;96471.66;5015622;28;20522;-54
2021/01/13 07:06:10;;;;;;;6.90;5.20;;;;;;;2.21;92.75;96462.28;5015269;28;20259;-56
2021/01/13 07:08:36;;;;;;;8.13;4.63;;;;;;;2.08;93.71;96463.63;5015849;28;20632;-54
2021/01/13 07:11:04;;;;;;;6.27;5.00;;;;;;;2.26;92.97;96471.16;5015742;28;20819;-54
2021/01/13 07:13:33;;;;;;;4.97;4.50;;;;;;;2.33;92.11;96469.47;5015295;28;20193;-56
2021/01/13 07:16:00;;;;;;;7.83;5.07;;;;;;;2.35;92.94;96484.84;5014502;28;20458;-55
2021/01/13 07:18:27;;;;;;;5.13;4.63;;;;;;;2.29;92.36;96480.34;5014913;28;20430;-53
2021/01/13 07:20:53;;;;;;;6.53;4.90;;;;;;;2.35;92.79;96469.31;5013357;28;20773;-55
2021/01/13 07:23:20;;;;;;;8.30;5.13;;;;;;;2.31;93.41;96475.81;5002522;28;20423;-55
2021/01/13 07:25:50;;;;;;;4.67;4.27;;;;;;;2.15;93.65;96474.13;5005998;28;20467;-56
2021/01/13 07:28:17;;;;;;;5.60;5.10;;;;;;;2.26;93.03;96478.09;5004538;28;20431;-53
2021/01/13 07:30:44;;;;;;;5.60;4.37;;;;;;;2.05;94.51;96478.69;5015238;28;20404;-54
2021/01/13 07:33:14;;;;;;;5.83;4.70;;;;;;;2.03;94.22;96486.66;5014535;28;20956;-55
2021/01/13 07:35:45;;;;;;;6.30;4.40;;;;;;;2.13;93.82;96478.66;5014526;28;20444;-54
2021/01/13 07:38:19;;;;;;;12.27;5.80;;;;;;;2.07;94.51;96493.09;5013731;28;20428;-56
2021/01/13 07:40:57;;;;;;;6.20;4.90;;;;;;;2.10;93.27;96489.38;5015443;28;20392;-54
2021/01/13 07:44:10;;;;;;;6.20;5.07;;;;;;;2.21;93.60;96498.56;5014976;28;20819;-54
2021/01/13 07:46:35;;;;;;;5.90;4.70;;;;;;;2.31;93.26;96499.13;5006540;28;20422;-55
2021/01/13 07:49:20;;;;;;;8.30;5.07;;;;;;;2.29;92.50;96501.06;4994558;28;20451;-54
2021/01/13 07:51:52;;;;;;;5.73;5.20;;;;;;;2.23;93.12;96510.34;4995590;28;20230;-56
2021/01/13 07:54:37;;;;;;;5.37;4.83;;;;;;;2.13;92.96;96514.13;5000673;28;20436;-55
2021/01/13 07:57:07;;;;;;;9.23;5.20;;;;;;;2.14;93.49;96506.19;4995728;28;20439;-55
2021/01/13 07:59:38;;;;;;;4.77;4.20;;;;;;;2.24;92.84;96514.56;4995178;28;20971;-54
2021/01/13 08:02:31;;;;;;;4.90;4.20;;;;;;;2.32;91.97;96516.31;4995230;28;20912;-54
2021/01/13 08:05:21;;;;;;;5.23;4.60;;;;;;;2.35;91.07;96518.53;5001150;28;20933;-56
2021/01/13 08:08:06;;;;;;;4.57;4.07;;;;;;;2.24;91.75;96516.34;5014919;28;20481;-54
2021/01/13 08:10:35;;;;;;;12.60;4.27;;;;;;;2.44;90.72;96514.94;5014789;28;20412;-54
2021/01/13 08:13:22;;;;;;;7.63;4.60;;;;;;;2.35;90.02;96515.97;5014372;28;20409;-54
2021/01/13 08:16:07;;;;;;;9.40;5.90;;;;;;;2.48;89.62;96513.63;5001328;28;20716;-54
2021/01/13 08:18:55;;;;;;;8.37;6.30;;;;;;;2.50;89.06;96509.06;4994899;28;20417;-54
2021/01/13 08:21:33;;;;;;;8.00;5.17;;;;;;;2.56;88.80;96514.38;5014064;28;20475;-54
2021/01/13 08:24:15;;;;;;;8.93;4.90;;;;;;;2.60;89.22;96517.41;5013069;28;20448;-53
2021/01/13 08:26:41;;;;;;;7.43;4.47;;;;;;;2.59;87.44;96518.41;5014127;28;20501;-54
2021/01/13 08:29:17;;;;;;;7.67;4.53;;;;;;;2.52;89.05;96520.88;5014497;28;20413;-56
2021/01/13 08:31:50;;;;;;;10.80;6.40;;;;;;;2.42;88.65;96522.88;5014210;28;20450;-56
2021/01/13 08:34:18;;;;;;;7.80;4.77;;;;;;;2.66;88.51;96532.28;5012612;28;20806;-54
2021/01/13 08:36:54;;;;;;;7.23;5.10;;;;;;;2.83;86.75;96532.00;5014029;28;20405;-55
2021/01/13 08:39:31;;;;;;;8.33;4.50;;;;;;;2.59;86.88;96539.16;5014195;28;20488;-55
2021/01/13 08:42:23;;;;;;;10.23;4.50;;;;;;;2.43;86.73;96537.44;5014077;28;20427;-56
2021/01/13 08:44:50;;;;;;;5.90;4.37;;;;;;;2.47;87.58;96533.53;5004714;28;20456;-54
2021/01/13 08:47:16;;;;;;;10.60;7.23;;;;;;;2.74;86.64;96534.81;5013587;28;20907;-54
2021/01/13 08:49:42;;;;;;;9.13;5.13;;;;;;;2.93;86.75;96539.56;5013763;28;20421;-53
2021/01/13 08:52:10;;;;;;;4.80;4.43;;;;;;;3.06;86.90;96532.78;5014081;28;20420;-55
2021/01/13 08:54:38;;;;;;;9.73;5.53;;;;;;;3.32;86.13;96540.19;5007461;28;20809;-53
2021/01/13 08:57:05;;;;;;;10.40;6.67;;;;;;;3.23;85.95;96541.25;4994525;28;20775;-55
2021/01/13 08:59:35;;;;;;;7.70;5.60;;;;;;;3.34;84.64;96546.03;4994300;28;20419;-53
2021/01/13 09:02:11;;;;;;;5.50;4.30;;;;;;;3.26;84.71;96545.28;4994401;28;20843;-53
2021/01/13 09:04:59;;;;;;;4.93;4.43;;;;;;;3.02;85.94;96541.09;5009727;28;20938;-53
2021/01/13 09:07:27;;;;;;;3.50;3.00;;;;;;;3.03;84.61;96546.13;5013426;28;20453;-53
2021/01/13 09:10:07;;;;;;;3.43;2.77;;;;;;;2.90;85.07;96548.47;5013806;28;20507;-53
2021/01/13 09:12:42;;;;;;;4.87;3.07;;;;;;;2.81;85.23;96546.13;5012649;28;20419;-55
2021/01/13 09:15:07;;;;;;;7.07;3.30;;;;;;;2.77;85.76;96544.88;5013585;28;20463;-53
2021/01/13 09:17:33;;;;;;;8.23;2.83;;;;;;;2.79;86.10;96548.09;5011888;28;20502;-55
2021/01/13 09:20:00;;;;;;;4.20;3.47;;;;;;;2.73;86.33;96551.38;5013840;28;20177;-55
2021/01/13 09:22:40;;;;;;;4.20;3.10;;;;;;;2.69;87.07;96553.50;5009589;28;20978;-53
2021/01/13 09:25:16;;;;;;;3.17;2.90;;;;;;;2.66;87.21;96550.44;5013181;28;20444;-55
2021/01/13 09:27:57;;;;;;;3.47;2.97;;;;;;;2.61;87.38;96547.56;5012504;28;20420;-53
2021/01/13 09:30:38;;;;;;;7.47;3.13;;;;;;;2.89;86.99;96557.25;5013770;28;20404;-54
2021/01/13 09:33:07;;;;;;;5.33;2.80;;;;;;;2.83;87.45;96559.72;5012147;28;20435;-55
2021/01/13 09:35:46;;;;;;;5.13;3.23;;;;;;;2.80;87.14;96554.88;5010518;28;20466;-54
2021/01/13 09:38:13;;;;;;;5.57;3.30;;;;;;;2.76;86.89;96564.81;5009263;28;20432;-55
2021/01/13 09:41:26;;;;;;;5.93;3.20;;;;;;;2.91;86.94;96559.69;5008448;28;20423;-54
2021/01/13 09:44:09;;;;;;;7.50;3.73;;;;;;;2.95;86.99;96564.34;4948908;29;20452;-55
2021/01/13 09:46:35;;;;;;;4.13;3.33;;;;;;;2.94;86.30;96564.50;5009651;28;20414;-54
2021/01/13 09:49:06;;;;;;;5.70;3.53;;;;;;;3.05;85.78;96566.69;5009448;28;20922;-53
2021/01/13 09:51:33;;;;;;;3.27;2.90;;;;;;;2.99;85.69;96572.56;5008938;28;20181;-54
2021/01/13 09:54:04;;;;;;;5.80;4.00;;;;;;;3.08;87.07;96577.53;4990046;28;20529;-54
2021/01/13 09:56:31;;;;;;;9.10;3.67;;;;;;;3.21;85.66;96571.75;4990261;28;20470;-54
2021/01/13 09:58:59;;;;;;;4.00;3.60;;;;;;;3.27;84.94;96565.88;4990330;28;20408;-55
2021/01/13 10:01:27;;;;;;;3.90;3.60;;;;;;;3.25;85.22;96567.84;5003413;28;20488;-54
2021/01/13 10:03:57;;;;;;;6.87;4.23;;;;;;;3.38;84.85;96556.84;5009518;28;20428;-56
2021/01/13 10:06:26;;;;;;;5.80;3.63;;;;;;;2.87;86.91;96567.00;5009192;28;20421;-54
2021/01/13 10:08:54;;;;;;;3.60;2.70;;;;;;;3.11;86.01;96560.81;5008946;28;20416;-52
2021/01/13 10:11:23;;;;;;;5.20;2.53;;;;;;;3.18;86.39;96561.75;4997319;28;20420;-53
2021/01/13 10:14:16;;;;;;;3.30;2.63;;;;;;;3.30;85.29;96555.13;4993299;28;20442;-55
2021/01/13 10:16:43;;;;;;;4.87;2.70;;;;;;;3.36;84.95;96556.22;4992166;28;20474;-55
2021/01/13 10:19:10;;;;;;;3.93;3.63;;;;;;;3.49;85.00;96554.66;4993742;28;20419;-53
2021/01/13 10:21:48;;;;;;;6.60;2.50;;;;;;;3.51;84.23;96549.28;4997248;28;20435;-52
2021/01/13 10:24:16;;;;;;;2.97;2.20;;;;;;;3.28;84.45;96553.72;4996103;28;20440;-54
2021/01/13 10:26:44;;;;;;;6.13;2.50;;;;;;;3.29;85.06;96557.91;5013239;28;20436;-54
2021/01/13 10:29:12;;;;;;;3.50;2.60;;;;;;;3.46;84.31;96551.59;5012208;28;20493;-53
2021/01/13 10:31:38;;;;;;;6.13;2.40;;;;;;;3.49;84.62;96553.84;5012327;28;20429;-53
2021/01/13 10:34:04;;;;;;;3.90;2.33;;;;;;;3.57;83.22;96545.97;5013191;28;20445;-55
2021/01/13 10:36:32;;;;;;;3.53;2.20;;;;;;;3.62;83.47;96539.28;5016267;28;20468;-55
2021/01/13 10:39:11;;;;;;;3.30;2.40;;;;;;;3.59;83.66;96539.59;5016586;28;20181;-53
2021/01/13 10:41:43;;;;;;;2.90;2.43;;;;;;;3.68;83.74;96542.91;4997196;28;20460;-55
2021/01/13 10:44:12;;;;;;;6.80;3.83;;;;;;;3.83;83.04;96541.97;4996091;28;20439;-53
2021/01/13 10:46:42;;;;;;;19.00;10.97;;;;;;;3.89;82.50;96541.25;4996872;28;20407;-53
2021/01/13 10:49:17;;;;;;;25.93;14.67;;;;;;;4.08;81.62;96535.50;4997884;28;20420;-53
2021/01/13 10:51:47;;;;;;;10.07;5.33;;;;;;;3.84;80.94;96546.16;5014725;28;20835;-55
2021/01/13 10:54:16;;;;;;;13.00;8.00;;;;;;;3.79;81.36;96540.69;5015524;28;20431;-55
2021/01/13 10:56:43;;;;;;;9.27;6.43;;;;;;;3.95;82.56;96537.13;5015807;28;20466;-55
2021/01/13 10:59:14;;;;;;;9.87;6.10;;;;;;;4.22;81.66;96536.47;5015294;28;20454;-53
2021/01/13 11:01:44;;;;;;;8.03;4.17;;;;;;;4.19;81.67;96531.63;5015938;28;20418;-55
2021/01/13 11:04:26;;;;;;;6.90;5.10;;;;;;;3.99;82.02;96535.75;5015421;28;20842;-55
2021/01/13 11:07:12;;;;;;;7.40;4.13;;;;;;;3.79;81.86;96530.31;5015105;28;20496;-53
2021/01/13 11:09:41;;;;;;;5.77;3.70;;;;;;;3.74;83.10;96519.66;5015080;28;20639;-55
2021/01/13 11:12:08;;;;;;;6.70;3.80;;;;;;;3.95;81.51;96518.94;5015857;28;20452;-56
2021/01/13 11:14:38;;;;;;;7.67;5.30;;;;;;;3.96;82.31;96523.13;5014672;28;20944;-55
2021/01/13 11:17:21;;;;;;;9.43;4.90;;;;;;;4.17;82.96;96513.59;5013868;28;20435;-55
2021/01/13 11:19:52;;;;;;;4.30;3.90;;;;;;;4.44;82.34;96519.13;5014527;28;21013;-55
2021/01/13 11:22:44;;;;;;;7.97;5.53;;;;;;;4.20;82.09;96513.22;5015624;28;20910;-55
2021/01/13 11:25:18;;;;;;;7.43;4.10;;;;;;;4.16;83.49;96511.19;5014496;28;20457;-52
2021/01/13 11:27:44;;;;;;;6.87;4.87;;;;;;;4.08;83.34;96509.50;5014635;28;20422;-55
2021/01/13 11:30:13;;;;;;;11.77;6.03;;;;;;;4.27;82.83;96502.09;5015452;28;20399;-53
2021/01/13 11:32:40;;;;;;;13.33;8.00;;;;;;;4.40;81.91;96491.88;5014352;28;20424;-55
2021/01/13 11:35:06;;;;;;;7.80;5.73;;;;;;;4.84;80.57;96495.91;5014854;28;20466;-52
2021/01/13 11:37:32;;;;;;;7.07;5.73;;;;;;;4.64;81.14;96489.69;5014452;28;20424;-52
2021/01/13 11:40:15;;;;;;;5.27;3.97;;;;;;;4.43;78.27;96494.09;4996741;28;20482;-55
2021/01/13 11:43:17;;;;;;;14.23;8.00;;;;;;;4.36;76.96;96496.63;4994044;28;20717;-55
2021/01/13 11:46:14;;;;;;;8.83;4.00;;;;;;;4.29;77.53;96498.34;4995482;28;20433;-55
2021/01/13 11:49:08;;;;;;;11.93;5.80;;;;;;;4.43;77.82;96496.69;5006155;28;20799;-55
2021/01/13 11:51:38;;;;;;;4.50;1.90;;;;;;;4.82;75.99;96491.91;4995018;28;20428;-55
2021/01/13 11:54:04;;;;;;;5.37;3.40;;;;;;;4.54;76.15;96480.59;5011853;28;20960;-55
2021/01/13 11:56:30;;;;;;;3.30;2.10;;;;;;;4.65;74.28;96474.91;5015176;28;20463;-52
2021/01/13 11:58:57;;;;;;;6.10;3.07;;;;;;;4.64;74.33;96468.88;5014253;28;20427;-55
2021/01/13 12:01:27;;;;;;;4.57;1.73;;;;;;;4.52;75.12;96469.56;5014685;28;20507;-53
2021/01/13 12:04:00;;;;;;;2.50;1.30;;;;;;;4.26;76.71;96464.13;5014178;28;20798;-55